Time;durP1;ratioP1;P1;durP2;ratioP2;P2;SDS_P1;SDS_P2;PMS_P1;PMS_P2;Temp;Humidity;BMP_temperature;BMP_pressure;BME280_temperature;BME280_humidity;BME280_pressure;Samples;Min_cycle;Max_cycle;Signal;HPM_P1;HPM_P2
2023/08/21 00:00:49;;;;;;;1.77;1.62;;;;;;;25.68;64.14;100249.06;4404046;32;33483;-87
2023/08/21 00:03:16;;;;;;;4.32;2.10;;;;;;;25.65;64.11;100252.09;4375913;32;33158;-87
2023/08/21 00:05:45;;;;;;;1.77;1.62;;;;;;;25.72;63.83;100251.31;4373245;32;32442;-87
2023/08/21 00:08:12;;;;;;;3.20;2.72;;;;;;;25.70;63.95;100249.78;4402488;32;33186;-87
2023/08/21 00:10:40;;;;;;;1.75;1.58;;;;;;;25.57;64.43;100255.56;4403548;32;33317;-87
2023/08/21 00:13:08;;;;;;;3.03;1.77;;;;;;;25.50;64.70;100257.19;4387599;32;32958;-87
2023/08/21 00:15:38;;;;;;;2.42;2.05;;;;;;;25.49;64.78;100261.75;4376658;32;32317;-87
2023/08/21 00:18:07;;;;;;;1.50;1.40;;;;;;;25.68;64.02;100258.03;4403202;32;32243;-87
2023/08/21 00:20:35;;;;;;;1.75;1.62;;;;;;;25.72;63.76;100259.44;4373794;32;34666;-87
2023/08/21 00:23:03;;;;;;;3.78;1.95;;;;;;;25.60;64.31;100251.72;4372346;32;33647;-86
2023/08/21 00:25:30;;;;;;;2.70;2.37;;;;;;;25.68;63.86;100260.72;4393232;32;33249;-86
2023/08/21 00:27:58;;;;;;;3.12;1.58;;;;;;;25.68;64.07;100262.59;4389226;32;33453;-86
2023/08/21 00:30:26;;;;;;;18.83;2.28;;;;;;;25.71;63.97;100255.03;4373525;32;32798;-87
2023/08/21 00:32:54;;;;;;;3.70;3.25;;;;;;;25.69;63.96;100258.91;4386783;32;33821;-87
2023/08/21 00:35:23;;;;;;;3.12;2.00;;;;;;;25.65;64.22;100254.81;4373579;32;32694;-87
2023/08/21 00:37:51;;;;;;;3.50;2.62;;;;;;;25.63;64.09;100256.78;4411236;32;31995;-87
2023/08/21 00:40:19;;;;;;;2.58;2.33;;;;;;;25.59;64.24;100267.09;4398993;32;35000;-85
2023/08/21 00:42:47;;;;;;;2.53;2.33;;;;;;;25.57;64.33;100266.38;4386276;32;32848;-87
2023/08/21 00:45:15;;;;;;;1.67;1.58;;;;;;;25.59;64.16;100261.69;4392263;32;33417;-87
2023/08/21 00:47:43;;;;;;;2.50;2.30;;;;;;;25.47;64.40;100263.72;4389888;32;33999;-87
2023/08/21 00:50:11;;;;;;;4.65;2.20;;;;;;;25.46;64.68;100263.91;4392192;32;34405;-87
2023/08/21 00:52:40;;;;;;;1.73;1.62;;;;;;;25.63;63.65;100273.88;4409922;32;33631;-87
2023/08/21 00:55:08;;;;;;;3.42;2.47;;;;;;;25.51;64.07;100275.09;4393559;32;33013;-87
2023/08/21 00:57:37;;;;;;;2.53;2.08;;;;;;;25.42;64.49;100265.19;4390879;32;34100;-86
2023/08/21 01:00:10;;;;;;;2.35;1.92;;;;;;;25.36;64.70;100276.62;4374005;32;32945;-87
2023/08/21 01:02:38;;;;;;;2.53;2.33;;;;;;;25.41;64.54;100268.91;4379133;32;34640;-86
2023/08/21 01:05:09;;;;;;;5.75;2.30;;;;;;;25.37;64.80;100267.50;4410085;32;32906;-87
2023/08/21 01:07:50;;;;;;;3.25;2.47;;;;;;;25.47;63.85;100268.28;4373887;32;33107;-87
2023/08/21 01:10:40;;;;;;;4.00;2.65;;;;;;;25.24;65.12;100268.69;4405344;32;34775;-87
2023/08/21 01:13:18;;;;;;;3.92;3.37;;;;;;;25.18;65.24;100258.50;4403869;32;33217;-86
2023/08/21 01:15:46;;;;;;;3.42;2.12;;;;;;;25.13;65.55;100271.59;4400230;32;33236;-87
2023/08/21 01:18:15;;;;;;;3.25;2.67;;;;;;;25.20;65.32;100275.41;4391084;32;35143;-87
2023/08/21 01:20:44;;;;;;;2.60;2.42;;;;;;;25.08;65.64;100276.59;4412176;32;33987;-87
2023/08/21 01:23:29;;;;;;;1.42;1.33;;;;;;;25.20;65.15;100278.09;4405101;32;32573;-87
2023/08/21 01:25:57;;;;;;;2.15;2.05;;;;;;;25.08;65.40;100273.91;4405627;32;33946;-87
2023/08/21 01:28:25;;;;;;;2.42;2.22;;;;;;;24.95;65.95;100278.75;4374265;32;33307;-87
2023/08/21 01:30:59;;;;;;;2.00;1.90;;;;;;;24.95;65.97;100273.34;4385076;32;33687;-87
2023/08/21 01:33:30;;;;;;;3.78;3.37;;;;;;;24.87;66.16;100275.94;4380443;32;32729;-88
2023/08/21 01:35:59;;;;;;;1.90;1.80;;;;;;;25.01;65.65;100278.16;4400111;32;32190;-87
2023/08/21 01:38:27;;;;;;;1.60;1.50;;;;;;;25.01;65.53;100272.75;4390598;32;33047;-88
2023/08/21 01:40:54;;;;;;;2.97;2.60;;;;;;;25.02;65.49;100277.19;4388822;32;33232;-89
2023/08/21 01:43:22;;;;;;;2.55;2.37;;;;;;;24.95;65.78;100281.44;4384650;32;31098;-89
2023/08/21 01:45:50;;;;;;;1.73;1.60;;;;;;;24.88;65.91;100281.19;4403544;32;32972;-89
2023/08/21 01:48:18;;;;;;;3.37;2.75;;;;;;;24.93;65.60;100286.16;4401235;32;33929;-89
2023/08/21 01:50:47;;;;;;;2.58;2.40;;;;;;;24.83;66.17;100285.31;4398371;32;33185;-88
2023/08/21 01:53:14;;;;;;;6.32;2.83;;;;;;;25.09;64.73;100286.41;4386411;32;32984;-89
2023/08/21 01:55:44;;;;;;;2.78;2.55;;;;;;;24.81;65.76;100288.19;4399593;32;34249;-88
2023/08/21 01:58:11;;;;;;;3.30;3.00;;;;;;;24.78;65.90;100289.34;4404807;32;34628;-88
2023/08/21 02:00:39;;;;;;;4.45;2.85;;;;;;;24.74;66.18;100293.31;4388128;32;33427;-88
2023/08/21 02:03:08;;;;;;;2.45;1.95;;;;;;;24.60;66.57;100295.63;4392220;32;34216;-88
2023/08/21 02:05:39;;;;;;;1.40;1.27;;;;;;;24.69;66.44;100300.16;4373146;32;32541;-89
2023/08/21 02:08:11;;;;;;;9.75;2.70;;;;;;;24.66;66.61;100295.91;4374378;32;32418;-88
2023/08/21 02:10:52;;;;;;;2.35;2.12;;;;;;;24.66;66.69;100300.44;4405240;32;33609;-88
2023/08/21 02:13:20;;;;;;;2.45;2.17;;;;;;;24.65;66.41;100305.00;4399008;32;33390;-86
2023/08/21 02:15:48;;;;;;;2.25;1.90;;;;;;;24.60;66.46;100301.03;4386585;32;32879;-86
2023/08/21 02:18:16;;;;;;;1.87;1.77;;;;;;;24.67;66.06;100300.28;4387774;32;32894;-86
2023/08/21 02:20:44;;;;;;;2.08;1.87;;;;;;;24.61;66.17;100291.94;4370598;32;34326;-86
2023/08/21 02:23:11;;;;;;;1.85;1.67;;;;;;;24.61;66.07;100287.38;4398602;32;33724;-86
2023/08/21 02:25:39;;;;;;;2.58;1.90;;;;;;;24.54;66.34;100288.94;4377355;32;32171;-86
2023/08/21 02:28:07;;;;;;;4.78;2.55;;;;;;;24.60;66.07;100285.69;4405018;32;34404;-86
2023/08/21 02:30:34;;;;;;;2.20;2.08;;;;;;;24.85;64.94;100292.28;4372818;32;34111;-86
2023/08/21 02:33:02;;;;;;;3.70;2.75;;;;;;;24.57;65.90;100290.50;4402500;32;34397;-86
2023/08/21 02:35:30;;;;;;;6.35;2.67;;;;;;;24.50;65.97;100284.84;4382607;32;32020;-86
2023/08/21 02:37:58;;;;;;;5.57;3.10;;;;;;;24.69;64.93;100294.75;4374501;32;33615;-86
2023/08/21 02:40:26;;;;;;;4.25;3.08;;;;;;;24.27;66.81;100293.22;4374741;32;33871;-86
2023/08/21 02:42:53;;;;;;;2.05;1.85;;;;;;;24.40;66.06;100297.50;4397630;32;32717;-86
2023/08/21 02:45:21;;;;;;;2.70;2.45;;;;;;;24.07;67.80;100299.62;4388070;32;33115;-89
2023/08/21 02:47:50;;;;;;;2.72;1.95;;;;;;;24.13;67.10;100292.81;4372633;32;32719;-89
2023/08/21 02:50:17;;;;;;;3.72;2.47;;;;;;;24.08;67.90;100298.63;4412464;32;32681;-89
2023/08/21 02:52:45;;;;;;;2.92;2.72;;;;;;;24.06;67.92;100297.91;4375455;32;33823;-89
2023/08/21 02:55:14;;;;;;;2.55;2.03;;;;;;;24.18;67.13;100294.06;4398897;32;33354;-89
2023/08/21 02:57:45;;;;;;;4.55;2.90;;;;;;;24.04;67.77;100289.09;4390046;32;33080;-89
2023/08/21 03:00:13;;;;;;;4.00;2.60;;;;;;;24.10;67.56;100285.84;4374183;32;32612;-89
2023/08/21 03:02:43;;;;;;;2.05;1.85;;;;;;;24.15;67.52;100290.81;4376254;32;33436;-89
2023/08/21 03:05:13;;;;;;;3.05;2.30;;;;;;;24.07;67.56;100285.25;4391776;32;32665;-89
2023/08/21 03:07:41;;;;;;;2.78;2.53;;;;;;;24.14;67.31;100283.72;4376861;32;33255;-89
2023/08/21 03:10:09;;;;;;;1.15;1.10;;;;;;;24.13;67.27;100287.41;4388770;32;33953;-89
2023/08/21 03:12:36;;;;;;;2.35;2.15;;;;;;;24.10;67.33;100290.38;4402255;32;33486;-89
2023/08/21 03:15:05;;;;;;;2.42;1.80;;;;;;;23.94;67.83;100288.25;4384488;32;33094;-89
2023/08/21 03:17:33;;;;;;;17.40;2.87;;;;;;;24.05;67.14;100285.41;4390294;32;33038;-89
2023/08/21 03:20:04;;;;;;;3.28;2.97;;;;;;;23.85;67.86;100284.56;4403336;32;34044;-89
2023/08/21 03:22:32;;;;;;;1.55;1.45;;;;;;;24.17;66.18;100289.69;4388991;32;33842;-89
2023/08/21 03:25:00;;;;;;;2.40;1.52;;;;;;;23.88;67.53;100288.78;4384031;32;34077;-89
2023/08/21 03:27:28;;;;;;;2.17;2.03;;;;;;;24.22;66.06;100290.09;4401479;32;34020;-89
2023/08/21 03:30:00;;;;;;;3.20;2.72;;;;;;;23.99;66.92;100296.78;4387415;32;33204;-89
2023/08/21 03:32:30;;;;;;;1.50;1.40;;;;;;;23.89;67.35;100298.63;4388346;32;34370;-88
2023/08/21 03:34:57;;;;;;;2.62;2.05;;;;;;;23.82;67.71;100295.59;4389823;32;32553;-88
2023/08/21 03:37:25;;;;;;;2.12;2.03;;;;;;;23.91;67.22;100292.06;4384029;32;34249;-88
2023/08/21 03:39:53;;;;;;;1.50;1.42;;;;;;;23.74;67.67;100301.72;4389734;32;33788;-88
2023/08/21 03:42:22;;;;;;;5.90;2.22;;;;;;;23.80;67.76;100297.59;4376104;32;33064;-88
2023/08/21 03:44:50;;;;;;;1.77;1.48;;;;;;;23.90;67.14;100297.63;4390336;32;33540;-87
2023/08/21 03:47:18;;;;;;;2.15;1.73;;;;;;;23.82;67.27;100303.69;4400933;32;32854;-88
2023/08/21 03:49:48;;;;;;;2.47;2.28;;;;;;;23.70;67.43;100302.97;4400029;32;34100;-88
2023/08/21 03:52:16;;;;;;;3.17;2.65;;;;;;;23.80;67.39;100305.69;4400459;32;33202;-88
2023/08/21 03:54:44;;;;;;;3.55;2.05;;;;;;;23.73;67.61;100310.78;4409091;32;33469;-86
2023/08/21 03:57:12;;;;;;;1.08;1.08;;;;;;;23.79;67.54;100303.16;4389104;32;32899;-87
2023/08/21 03:59:40;;;;;;;1.83;1.73;;;;;;;23.81;67.45;100301.16;4406140;32;33525;-86
2023/08/21 04:02:07;;;;;;;2.95;1.73;;;;;;;23.96;66.91;100297.91;4387822;32;33455;-86
2023/08/21 04:04:35;;;;;;;6.00;2.58;;;;;;;24.07;66.21;100299.62;4385991;32;32238;-86
2023/08/21 04:07:03;;;;;;;2.55;2.22;;;;;;;23.81;67.43;100299.31;4398303;32;33906;-86
2023/08/21 04:09:30;;;;;;;1.62;1.52;;;;;;;23.67;68.13;100297.84;4372489;32;34024;-86
2023/08/21 04:11:58;;;;;;;2.30;1.67;;;;;;;23.74;67.66;100300.88;4384526;32;32519;-86
2023/08/21 04:14:26;;;;;;;3.28;2.10;;;;;;;23.73;67.71;100304.53;4380334;32;33160;-87
2023/08/21 04:16:53;;;;;;;3.08;2.45;;;;;;;23.90;67.11;100298.47;4401521;32;32327;-87
2023/08/21 04:19:21;;;;;;;1.33;1.27;;;;;;;23.79;67.66;100300.44;4403729;32;34677;-87
2023/08/21 04:21:49;;;;;;;1.95;1.85;;;;;;;23.76;68.11;100298.88;4377634;32;32678;-87
2023/08/21 04:24:16;;;;;;;1.95;1.77;;;;;;;23.79;68.12;100304.00;4390024;32;34475;-86
2023/08/21 04:26:44;;;;;;;4.70;4.22;;;;;;;23.75;68.46;100306.13;4402446;32;33241;-87
2023/08/21 04:29:11;;;;;;;1.67;1.30;;;;;;;23.88;67.92;100299.59;4395903;32;33908;-87
2023/08/21 04:31:39;;;;;;;2.75;1.98;;;;;;;24.09;67.08;100303.03;4374696;32;33177;-86
2023/08/21 04:34:07;;;;;;;2.53;2.33;;;;;;;24.33;66.98;100309.84;4372907;32;32924;-86
2023/08/21 04:36:35;;;;;;;2.10;2.00;;;;;;;24.26;67.04;100307.72;4388634;32;33596;-86
2023/08/21 04:39:03;;;;;;;3.00;2.60;;;;;;;24.14;68.05;100310.69;4386752;32;33475;-86
2023/08/21 04:41:31;;;;;;;2.03;1.92;;;;;;;24.09;68.40;100307.56;4403428;32;32479;-86
2023/08/21 04:44:00;;;;;;;7.10;3.92;;;;;;;24.07;68.64;100315.81;4391307;32;34006;-86
2023/08/21 04:46:27;;;;;;;2.05;1.95;;;;;;;24.05;68.98;100316.94;4396336;32;34262;-86
2023/08/21 04:48:55;;;;;;;2.10;2.00;;;;;;;24.04;69.09;100320.62;4387570;32;32539;-86
2023/08/21 04:51:23;;;;;;;2.08;1.87;;;;;;;24.20;68.58;100316.34;4387783;32;33463;-86
2023/08/21 04:53:52;;;;;;;2.62;2.53;;;;;;;24.30;68.47;100321.75;4388118;32;34213;-86
2023/08/21 04:56:20;;;;;;;4.22;3.37;;;;;;;24.30;68.40;100319.06;4400358;32;34585;-86
2023/08/21 04:58:48;;;;;;;2.12;1.92;;;;;;;24.35;68.46;100324.87;4382755;32;33942;-86
2023/08/21 05:01:16;;;;;;;1.20;1.10;;;;;;;24.42;68.08;100322.50;4398459;32;33197;-86
2023/08/21 05:03:44;;;;;;;1.92;1.83;;;;;;;24.75;67.15;100327.44;4400762;32;32509;-86
2023/08/21 05:06:12;;;;;;;6.57;2.67;;;;;;;24.91;66.81;100328.66;4393411;32;33822;-86
2023/08/21 05:08:40;;;;;;;2.47;2.25;;;;;;;24.96;66.96;100323.66;4396558;32;34647;-89
2023/08/21 05:11:09;;;;;;;2.45;2.25;;;;;;;24.99;67.24;100331.50;4399315;32;33574;-89
2023/08/21 05:13:37;;;;;;;7.37;2.78;;;;;;;25.18;66.56;100323.34;4377943;32;32420;-89
2023/08/21 05:16:05;;;;;;;2.75;1.65;;;;;;;25.28;66.53;100329.56;4381739;32;34573;-89
2023/08/21 05:18:34;;;;;;;2.83;2.33;;;;;;;25.29;66.71;100327.72;4393151;32;33222;-89
2023/08/21 05:21:01;;;;;;;7.32;2.55;;;;;;;25.32;66.77;100324.72;4377269;32;226257;-86
2023/08/21 05:23:30;;;;;;;3.58;2.30;;;;;;;25.62;65.85;100336.22;4392231;32;31670;-86
2023/08/21 05:25:59;;;;;;;2.35;1.87;;;;;;;25.74;65.61;100330.47;4380250;32;32970;-86
2023/08/21 05:28:27;;;;;;;1.00;1.00;;;;;;;25.81;65.74;100325.31;4402741;32;34172;-86
2023/08/21 05:30:54;;;;;;;3.15;2.58;;;;;;;25.76;65.73;100328.47;4396013;32;32460;-86
2023/08/21 05:33:23;;;;;;;2.45;2.25;;;;;;;25.78;65.63;100336.47;4380693;32;33115;-86
2023/08/21 05:35:53;;;;;;;1.67;1.58;;;;;;;25.94;65.22;100333.09;4386966;32;33965;-86
2023/08/21 05:38:21;;;;;;;2.28;2.08;;;;;;;26.41;63.82;100333.69;4384396;32;32010;-86
2023/08/21 05:40:50;;;;;;;1.85;1.75;;;;;;;26.51;63.31;100336.34;4404773;32;33517;-86
2023/08/21 05:43:18;;;;;;;2.72;1.73;;;;;;;26.44;64.12;100340.69;4405508;32;33076;-86
2023/08/21 05:45:47;;;;;;;1.62;1.45;;;;;;;26.85;63.33;100335.59;4384270;32;34077;-85
2023/08/21 05:48:17;;;;;;;2.35;1.80;;;;;;;26.93;62.82;100339.22;4399640;32;32550;-87
2023/08/21 05:50:50;;;;;;;3.83;2.05;;;;;;;26.79;63.61;100347.91;4396556;32;32546;-87
2023/08/21 05:53:18;;;;;;;4.32;3.70;;;;;;;26.93;63.69;100346.50;4391903;32;33544;-87
2023/08/21 05:55:46;;;;;;;4.15;2.17;;;;;;;27.07;63.13;100340.47;4405537;32;32189;-87
2023/08/21 05:58:14;;;;;;;4.65;3.28;;;;;;;27.23;62.66;100348.72;4386491;32;33942;-87
2023/08/21 06:00:44;;;;;;;2.40;2.20;;;;;;;27.56;62.44;100343.47;4392383;32;33100;-87
2023/08/21 06:03:12;;;;;;;2.37;2.05;;;;;;;27.44;62.66;100356.47;4406220;32;31970;-87
2023/08/21 06:05:43;;;;;;;3.60;2.75;;;;;;;27.61;62.39;100345.69;4394623;32;34159;-87
2023/08/21 06:08:11;;;;;;;2.85;2.65;;;;;;;27.60;61.81;100342.13;4400268;32;32667;-87
2023/08/21 06:10:39;;;;;;;2.03;1.92;;;;;;;28.05;60.34;100340.91;4380019;32;34870;-87
2023/08/21 06:13:07;;;;;;;2.50;2.30;;;;;;;27.91;60.70;100344.28;4376213;32;32730;-88
2023/08/21 06:15:34;;;;;;;2.42;2.25;;;;;;;28.23;60.21;100344.34;4400487;32;32544;-88
2023/08/21 06:18:04;;;;;;;3.60;2.58;;;;;;;28.41;60.16;100348.81;4394770;32;32841;-87
2023/08/21 06:20:32;;;;;;;3.62;3.30;;;;;;;28.46;60.07;100341.84;4388827;32;33905;-87
2023/08/21 06:23:00;;;;;;;1.67;1.35;;;;;;;28.44;59.12;100343.88;4375395;32;31381;-88
2023/08/21 06:25:30;;;;;;;2.22;2.03;;;;;;;28.56;58.18;100347.09;4370650;32;32297;-88
2023/08/21 06:27:58;;;;;;;3.33;2.50;;;;;;;28.53;54.94;100345.59;4376179;32;33668;-88
2023/08/21 06:30:26;;;;;;;2.95;2.75;;;;;;;28.77;54.37;100346.56;4379064;32;34485;-88
2023/08/21 06:32:56;;;;;;;2.85;1.87;;;;;;;29.31;52.68;100344.97;4370023;32;32222;-88
2023/08/21 06:35:24;;;;;;;1.70;1.60;;;;;;;29.30;54.80;100346.00;4389314;32;33714;-88
2023/08/21 06:37:52;;;;;;;3.83;1.60;;;;;;;29.03;54.61;100341.81;4398148;32;34384;-88
2023/08/21 06:40:20;;;;;;;1.65;1.55;;;;;;;29.26;54.01;100341.91;4384185;32;33280;-88
2023/08/21 06:42:50;;;;;;;6.47;3.08;;;;;;;29.85;53.48;100353.25;4381406;32;33061;-87
2023/08/21 06:45:19;;;;;;;2.72;2.42;;;;;;;29.75;52.30;100352.63;4380512;32;33610;-89
2023/08/21 06:47:47;;;;;;;2.08;1.80;;;;;;;29.88;52.43;100352.06;4398645;32;34192;-88
2023/08/21 06:50:15;;;;;;;1.62;1.52;;;;;;;29.93;52.42;100348.81;4396052;32;34359;-89
2023/08/21 06:52:43;;;;;;;1.77;1.55;;;;;;;29.86;50.32;100354.09;4387016;32;32968;-89
2023/08/21 06:55:11;;;;;;;1.90;1.60;;;;;;;30.04;50.60;100345.66;4378480;32;31894;-86
2023/08/21 06:57:39;;;;;;;2.75;2.03;;;;;;;30.30;51.69;100343.47;4373357;32;32663;-87
2023/08/21 07:00:07;;;;;;;1.60;1.37;;;;;;;30.35;50.30;100343.78;4400947;32;32462;-87
2023/08/21 07:02:34;;;;;;;1.52;1.30;;;;;;;30.76;50.59;100340.72;4363196;32;32135;-87
2023/08/21 07:05:03;;;;;;;2.80;1.90;;;;;;;30.53;50.10;100342.63;4391493;32;33834;-87
2023/08/21 07:07:30;;;;;;;3.55;2.12;;;;;;;30.80;50.23;100333.84;4381165;32;34785;-85
2023/08/21 07:09:59;;;;;;;1.90;1.73;;;;;;;30.85;48.91;100339.59;4385524;32;34976;-87
2023/08/21 07:12:26;;;;;;;1.80;1.70;;;;;;;30.81;48.95;100341.03;4387338;32;33344;-86
2023/08/21 07:14:55;;;;;;;3.78;2.95;;;;;;;30.94;47.99;100334.06;4387845;32;33169;-87
2023/08/21 07:17:23;;;;;;;1.62;1.52;;;;;;;31.12;48.40;100331.84;4398777;32;35343;-86
2023/08/21 07:19:52;;;;;;;2.25;2.03;;;;;;;31.04;49.19;100334.66;4402296;32;34200;-86
2023/08/21 07:22:20;;;;;;;1.52;1.42;;;;;;;31.16;49.20;100335.03;4378474;32;32797;-86
2023/08/21 07:24:48;;;;;;;3.08;2.80;;;;;;;31.12;48.24;100334.56;4379063;32;32401;-86
2023/08/21 07:27:16;;;;;;;2.00;1.80;;;;;;;31.32;48.34;100327.53;4369273;32;32665;-86
2023/08/21 07:29:44;;;;;;;2.05;1.85;;;;;;;31.64;48.32;100325.44;4389524;32;34134;-86
2023/08/21 07:32:12;;;;;;;1.75;1.55;;;;;;;31.64;47.69;100327.31;4388992;32;31963;-86
2023/08/21 07:34:40;;;;;;;4.55;2.42;;;;;;;31.60;46.86;100332.31;4390174;32;32387;-86
2023/08/21 07:37:09;;;;;;;3.92;2.08;;;;;;;32.25;47.87;100330.56;4401842;32;33886;-86
2023/08/21 07:39:38;;;;;;;2.47;2.28;;;;;;;32.39;45.17;100326.09;4378732;32;33303;-86
2023/08/21 07:42:05;;;;;;;2.75;2.30;;;;;;;32.41;45.65;100332.19;4381634;32;32588;-86
2023/08/21 07:44:33;;;;;;;3.08;1.58;;;;;;;32.29;47.47;100332.69;4400822;32;35761;-86
2023/08/21 07:47:01;;;;;;;3.37;2.10;;;;;;;32.57;47.72;100334.63;4380873;32;30938;-86
2023/08/21 07:49:31;;;;;;;2.53;2.33;;;;;;;32.39;46.58;100335.13;4402431;32;34176;-85
2023/08/21 07:51:58;;;;;;;1.80;1.70;;;;;;;32.26;44.40;100333.09;4406537;32;34355;-86
2023/08/21 07:54:26;;;;;;;1.75;1.65;;;;;;;32.41;43.54;100324.84;4377431;32;32713;-86
2023/08/21 07:56:54;;;;;;;1.60;1.50;;;;;;;32.20;45.38;100338.50;4381111;32;33414;-86
2023/08/21 07:59:22;;;;;;;2.28;1.45;;;;;;;32.50;44.95;100334.59;4390854;32;32986;-86
2023/08/21 08:01:50;;;;;;;2.45;1.85;;;;;;;32.89;43.97;100336.78;4355596;32;34791;-85
2023/08/21 08:04:18;;;;;;;3.80;2.42;;;;;;;33.17;42.34;100330.50;4400801;32;33205;-85
2023/08/21 08:06:45;;;;;;;1.37;1.27;;;;;;;33.15;43.70;100331.75;4388404;32;34363;-86
2023/08/21 08:09:13;;;;;;;2.97;1.90;;;;;;;33.22;43.10;100338.09;4384351;32;33654;-86
2023/08/21 08:11:41;;;;;;;3.72;2.55;;;;;;;32.89;41.58;100334.06;4395454;32;33049;-85
2023/08/21 08:14:08;;;;;;;2.53;2.12;;;;;;;33.18;42.87;100329.44;4398760;32;34212;-86
2023/08/21 08:16:36;;;;;;;3.50;1.90;;;;;;;33.13;41.48;100329.19;4373308;32;32583;-86
2023/08/21 08:19:04;;;;;;;2.15;1.62;;;;;;;33.31;42.04;100328.69;4376329;32;32377;-86
2023/08/21 08:21:31;;;;;;;2.95;2.05;;;;;;;33.33;40.38;100330.19;4398341;32;33626;-86
2023/08/21 08:24:02;;;;;;;2.75;2.12;;;;;;;33.74;40.20;100325.75;4396277;32;32584;-86
2023/08/21 08:26:30;;;;;;;1.75;1.65;;;;;;;33.83;41.47;100336.31;4372369;32;32426;-86
2023/08/21 08:28:58;;;;;;;2.00;1.80;;;;;;;33.43;40.35;100329.84;4390033;32;32388;-86
2023/08/21 08:31:27;;;;;;;1.80;1.65;;;;;;;33.50;40.17;100333.44;4401423;32;33780;-86
2023/08/21 08:33:55;;;;;;;4.93;3.40;;;;;;;33.72;39.20;100328.69;4396476;32;34159;-86
2023/08/21 08:36:23;;;;;;;10.25;3.25;;;;;;;33.76;38.86;100329.97;4403210;32;33321;-86
2023/08/21 08:38:50;;;;;;;2.85;2.33;;;;;;;33.87;38.47;100331.28;4369941;32;33037;-86
2023/08/21 08:41:30;;;;;;;1.83;1.73;;;;;;;33.70;39.66;100328.03;4384920;32;33529;-86
2023/08/21 08:43:58;;;;;;;1.80;1.70;;;;;;;33.89;39.50;100334.63;4386209;32;33839;-86
2023/08/21 08:46:28;;;;;;;2.92;2.62;;;;;;;33.74;39.88;100336.69;4384238;32;34204;-86
2023/08/21 08:48:56;;;;;;;1.77;1.55;;;;;;;34.14;38.65;100337.69;4385469;32;32615;-87
2023/08/21 08:51:28;;;;;;;1.23;1.12;;;;;;;34.59;38.99;100335.22;4391017;32;31471;-87
2023/08/21 08:53:58;;;;;;;1.50;1.40;;;;;;;34.26;39.15;100335.19;4402829;32;33280;-86
2023/08/21 08:56:26;;;;;;;3.65;2.25;;;;;;;34.50;38.18;100336.50;4384671;32;33797;-87
2023/08/21 08:58:54;;;;;;;1.98;1.67;;;;;;;34.67;39.21;100332.28;4398636;32;33837;-86
2023/08/21 09:01:23;;;;;;;2.40;1.95;;;;;;;34.62;39.13;100332.09;4392197;32;31631;-87
2023/08/21 09:03:51;;;;;;;1.90;1.70;;;;;;;34.63;38.11;100342.00;4405661;32;32580;-86
2023/08/21 09:06:19;;;;;;;2.15;2.03;;;;;;;34.38;38.21;100339.84;4377048;32;33487;-87
2023/08/21 09:08:54;;;;;;;1.25;1.25;;;;;;;34.48;38.12;100344.09;4391128;32;33212;-87
2023/08/21 09:11:22;;;;;;;5.37;1.87;;;;;;;34.82;37.75;100340.28;4378847;32;34048;-87
2023/08/21 09:13:51;;;;;;;2.75;2.55;;;;;;;35.24;36.71;100338.16;4402904;32;33931;-87
2023/08/21 09:16:19;;;;;;;2.20;1.65;;;;;;;34.76;36.63;100342.00;4379663;32;33395;-87
2023/08/21 09:18:48;;;;;;;2.10;1.98;;;;;;;35.23;36.56;100334.56;4379373;32;33933;-87
2023/08/21 09:21:21;;;;;;;3.20;2.90;;;;;;;35.21;35.90;100328.44;4376187;32;33376;-87
2023/08/21 09:23:55;;;;;;;3.40;2.47;;;;;;;34.99;38.33;100329.72;4404149;32;33758;-87
2023/08/21 09:26:23;;;;;;;1.58;1.48;;;;;;;35.11;38.29;100328.03;4390775;32;34022;-87
2023/08/21 09:28:52;;;;;;;3.95;2.97;;;;;;;35.36;37.22;100319.94;4391069;32;32813;-87
2023/08/21 09:31:39;;;;;;;2.33;2.05;;;;;;;35.16;37.39;100330.97;4391570;32;32349;-87
2023/08/21 09:34:07;;;;;;;2.33;2.12;;;;;;;35.28;36.86;100318.28;4405743;32;35131;-87
2023/08/21 09:36:39;;;;;;;1.58;1.48;;;;;;;34.98;36.91;100317.91;4391215;32;32924;-87
2023/08/21 09:39:14;;;;;;;2.08;1.98;;;;;;;35.27;36.54;100313.00;4376889;32;32808;-87
2023/08/21 09:41:42;;;;;;;0.90;0.90;;;;;;;35.20;35.31;100310.28;4396934;32;32733;-88
2023/08/21 09:44:10;;;;;;;1.45;1.35;;;;;;;35.07;37.96;100315.78;4390281;32;33230;-88
2023/08/21 09:46:40;;;;;;;2.53;1.92;;;;;;;35.53;35.67;100307.44;4404491;32;33913;-88
2023/08/21 09:49:09;;;;;;;2.15;1.80;;;;;;;35.43;35.28;100301.53;4383873;32;34532;-87
2023/08/21 09:51:39;;;;;;;1.58;1.48;;;;;;;35.03;37.01;100303.56;4402118;32;32846;-86
2023/08/21 09:54:07;;;;;;;2.12;1.98;;;;;;;35.56;34.43;100307.03;4404185;32;32688;-86
2023/08/21 09:56:54;;;;;;;4.95;3.85;;;;;;;35.60;36.35;100304.66;4401519;32;34455;-86
2023/08/21 09:59:21;;;;;;;2.90;1.65;;;;;;;35.41;36.09;100307.22;4401973;32;32501;-87
2023/08/21 10:01:50;;;;;;;1.12;0.90;;;;;;;35.47;34.83;100307.50;4391397;32;33555;-88
2023/08/21 10:04:19;;;;;;;2.60;2.40;;;;;;;35.68;34.68;100295.34;4381679;32;33234;-88
2023/08/21 10:06:48;;;;;;;1.30;1.23;;;;;;;35.74;34.44;100300.78;4404316;32;34770;-89
2023/08/21 10:09:16;;;;;;;2.70;1.58;;;;;;;35.41;35.54;100300.91;4404484;32;33759;-89
2023/08/21 10:11:43;;;;;;;15.57;2.80;;;;;;;35.41;36.68;100293.50;4378881;32;33024;-89
2023/08/21 10:14:12;;;;;;;2.10;1.90;;;;;;;36.09;32.87;100292.16;4377863;32;34546;-89
2023/08/21 10:16:41;;;;;;;6.97;1.60;;;;;;;35.62;33.78;100289.66;4391918;32;32370;-89
2023/08/21 10:19:14;;;;;;;1.50;1.40;;;;;;;36.10;32.04;100291.09;4378142;32;33442;-88
2023/08/21 10:21:42;;;;;;;4.90;2.67;;;;;;;36.09;33.60;100287.50;4402230;32;33671;-88
2023/08/21 10:24:10;;;;;;;1.83;1.73;;;;;;;36.00;32.31;100282.50;4379844;32;32242;-89
2023/08/21 10:26:39;;;;;;;13.20;3.60;;;;;;;36.02;32.80;100283.09;4392628;32;33291;-89
2023/08/21 10:29:08;;;;;;;2.22;1.98;;;;;;;35.75;33.61;100286.00;4381038;32;33333;-89
2023/08/21 10:31:42;;;;;;;2.45;2.25;;;;;;;35.56;35.43;100286.94;4384595;32;32468;-89
2023/08/21 10:34:15;;;;;;;1.65;1.55;;;;;;;36.02;34.34;100286.69;4394385;32;34598;-88
2023/08/21 10:36:43;;;;;;;2.03;1.92;;;;;;;36.03;34.16;100282.03;4381777;32;33727;-89
2023/08/21 10:39:20;;;;;;;1.02;1.02;;;;;;;36.15;33.67;100274.78;4393576;32;32823;-89
2023/08/21 10:42:02;;;;;;;1.48;1.37;;;;;;;36.75;33.57;100275.13;4378079;32;31936;-88
2023/08/21 10:44:42;;;;;;;3.90;2.22;;;;;;;36.97;32.92;100277.47;4392919;32;32806;-89
2023/08/21 10:47:20;;;;;;;1.50;1.40;;;;;;;36.86;31.55;100274.37;4408410;32;34787;-88
2023/08/21 10:49:51;;;;;;;6.10;2.75;;;;;;;36.60;32.39;100275.47;4380061;32;33101;-88
2023/08/21 10:52:23;;;;;;;1.73;1.58;;;;;;;35.53;35.25;100276.41;4383360;32;33575;-89
2023/08/21 10:54:56;;;;;;;3.12;2.28;;;;;;;35.96;33.43;100281.25;4391660;32;33045;-89
2023/08/21 10:57:26;;;;;;;4.40;2.75;;;;;;;36.41;32.72;100274.53;4380344;32;34789;-88
2023/08/21 10:59:56;;;;;;;2.33;1.90;;;;;;;36.84;32.27;100276.53;4405993;32;33825;-89
2023/08/21 11:02:25;;;;;;;2.05;1.95;;;;;;;37.00;32.81;100261.34;4407771;32;35460;-89
2023/08/21 11:04:53;;;;;;;1.90;1.80;;;;;;;37.58;30.85;100263.59;4403001;32;32896;-89
2023/08/21 11:07:21;;;;;;;1.90;1.75;;;;;;;37.05;32.11;100269.75;4388569;32;31632;-88
2023/08/21 11:09:49;;;;;;;1.48;1.37;;;;;;;36.64;32.64;100264.84;4380960;32;32977;-89
2023/08/21 11:12:21;;;;;;;2.87;2.10;;;;;;;37.12;30.80;100258.66;4395135;32;34348;-88
2023/08/21 11:14:49;;;;;;;2.65;1.40;;;;;;;37.18;31.53;100263.28;4403569;32;32607;-88
2023/08/21 11:17:20;;;;;;;2.78;1.80;;;;;;;37.13;30.79;100260.38;4404408;32;34041;-88
2023/08/21 11:19:48;;;;;;;1.98;1.62;;;;;;;37.01;32.17;100251.19;4403605;32;33005;-88
2023/08/21 11:22:16;;;;;;;2.00;1.83;;;;;;;37.32;30.50;100256.53;4368814;32;32407;-89
2023/08/21 11:24:48;;;;;;;1.70;1.60;;;;;;;37.05;31.65;100252.41;4403934;32;32172;-88
2023/08/21 11:27:17;;;;;;;2.62;2.03;;;;;;;37.23;31.66;100255.16;4369122;32;32519;-89
2023/08/21 11:29:47;;;;;;;4.75;2.20;;;;;;;37.68;31.24;100252.03;4372873;32;32846;-89
2023/08/21 11:32:17;;;;;;;2.05;1.92;;;;;;;37.23;31.31;100249.66;4378963;32;31664;-89